Wrenshall, MN (55797)

2:59 AM CDT on July 24, 2016 (GMT -0500)
Esko | | Change Station

Elev 1145 ft 46.68 °N, 92.34 °W | Updated 3 seconds ago

Overcast
Overcast
63.3 °F
Feels Like 63.3 °F
N
1.8
Wind Variable Wind from West
Gusts 2.5 mph

Today
High -- | Low -- °F
--% Chance of Precip.
Yesterday
High -- | Low -- °F
Precip. -- in
Pressure 29.74 in
Visibility 2.0 miles
Clouds Overcast 300 ft
Dew Point 62 °F
Humidity 97%
Rainfall 0.02 in
Snow Depth Not available.
5:41 AM 8:49 PM
Waning Gibbous, 78% visible
METAR KCOQ 240756Z AUTO 10004KT 2SM VCTSBR OVC003 18/17 A2974 RMK AO2 LTG DSNT N SE AND S
Pressure 29.74 in
Visibility 2.0 miles
Clouds Overcast 300 ft
Dew Point 62 °F
Humidity 97%
Rainfall 0.02 in
Snow Depth Not available.
5:41 AM 8:49 PM
Waning Gibbous, 78% visible
METAR KCOQ 240756Z AUTO 10004KT 2SM VCTSBR OVC003 18/17 A2974 RMK AO2 LTG DSNT N SE AND S

10-Day Weather Forecast

Almanac

Astronomy

Jul. 24, 2016 Rise Set
Actual Time
Civil Twilight
Nautical Twilight
Astronomical Twilight
Moon
Length of Visible Light
Length of Day
Tomorrow will be .
, % of the Moon is Illuminated

Today's Extremes

State Highs State Lows

Community

WunderPhotos

Upload Photos

1,927,041 photos uploaded!

WunderBlog® & News

Nearby

Air Quality

  Air Quality AQ Index Pollutant
Not available.

Snow Depth

Station Depth Elevation

Earthquake Activity

City Distance Mag. Time & Date
Minimum magnitude displayed is 2.5.

Coastal Water Temperatures

Place Temperature

Stations

Nearby Weather Stations

Station Location Temp. Windchill Dew Point Humidity Wind Precip. Elev Updated Type
                   

Watches & Warnings

There are currently no watches in effect.